Skip Navigation

Christman Field Latest Observations

Switch to metric unitsOther observation timesWeekly graphs

Date Time
MST
Temp
°F
RH
%
DewPt
°F
Wind
mph
Dir
°
Gust
mph
Dir
°
Press
in Hg
Solar
W/m^2
Prec
in
2021-12-03 14:50 54.6 37.0 28.9 5.5 138 9.3 130 24.947 227.4 0.00
2021-12-03 14:45 54.4 37.2 28.8 5.4 120 8.9 175 24.947 238.7 0.00
2021-12-03 14:40 54.6 36.9 28.8 4.8 177 7.8 190 24.948 250.0 0.00
2021-12-03 14:35 54.0 37.7 28.8 4.9 167 9.9 144 24.948 260.5 0.00
2021-12-03 14:30 54.6 37.9 29.5 6.5 134 9.1 129 24.948 271.2 0.00
2021-12-03 14:25 54.7 37.1 29.0 3.7 128 6.9 98 24.948 278.9 0.00
2021-12-03 14:20 54.7 36.7 28.8 5.2 108 10.2 152 24.948 286.4 0.00
2021-12-03 14:15 54.4 37.2 28.8 5.4 148 10.0 180 24.948 302.7 0.00
2021-12-03 14:10 54.2 37.9 29.1 6.1 159 9.3 156 24.948 312.8 0.00
2021-12-03 14:05 54.5 37.1 28.9 5.6 108 8.7 123 24.948 324.5 0.00
2021-12-03 14:00 54.4 37.2 28.8 6.9 148 10.2 157 24.948 336.9 0.00
2021-12-03 13:55 54.5 36.5 28.5 6.3 166 9.6 143 24.949 351.4 0.00
2021-12-03 13:50 54.5 37.1 28.8 5.8 142 8.7 171 24.949 362.4 0.00
2021-12-03 13:45 54.3 37.8 29.1 5.6 129 8.5 116 24.950 372.8 0.00
2021-12-03 13:40 54.6 37.0 28.8 4.8 108 8.9 106 24.950 379.9 0.00
2021-12-03 13:35 54.3 37.2 28.8 4.9 104 8.2 86 24.950 385.6 0.00
2021-12-03 13:30 54.6 37.0 28.8 4.9 105 7.9 97 24.950 396.0 0.00
2021-12-03 13:25 54.6 36.6 28.6 5.5 86 7.7 101 24.950 402.0 0.00
2021-12-03 13:20 54.4 36.1 28.1 4.5 103 7.7 141 24.950 405.7 0.00
2021-12-03 13:15 53.6 37.3 28.1 6.4 103 10.1 134 24.951 414.5 0.00
2021-12-03 13:10 53.0 38.2 28.2 7.9 125 11.8 134 24.950 397.6 0.00
2021-12-03 13:05 53.2 39.0 28.9 8.0 153 12.1 133 24.950 383.3 0.00
2021-12-03 13:00 53.2 38.6 28.7 7.9 104 12.1 133 24.951 414.8 0.00
2021-12-03 12:55 53.4 38.7 28.9 7.3 124 10.9 150 24.951 423.4 0.00
2021-12-03 12:50 53.3 38.4 28.5 8.2 148 12.5 160 24.951 428.4 0.00
2021-12-03 12:45 52.9 38.6 28.4 8.5 140 12.4 101 24.952 415.7 0.00
2021-12-03 12:40 53.1 39.3 29.0 7.5 104 12.1 84 24.953 449.5 0.00
2021-12-03 12:35 53.1 38.6 28.6 7.3 165 12.3 102 24.953 420.0 0.00
2021-12-03 12:30 52.6 39.1 28.4 7.3 121 12.2 127 24.953 416.2 0.00
2021-12-03 12:25 52.8 39.0 28.6 8.5 130 13.4 125 24.952 373.4 0.00